Alyeska Resort
Hourly Weather - Mid Mountian Site
ALY_MID_HR 10/31/2014
CLICK TO VIEW GRAPH!!

        DATE  TIME   Air   H2o   H2o   New  Snow  BATT   Rel
                    Temp  Inch Since  Snow Depth  Volt  Hum%
                      F   1HR  0600   1HR         AVG   AVG

  10/31/2014 01:00    20  0.00  0.00  -0.3  3.64 13.61    86
  10/30/2014 24:00    20  0.00  0.00  -0.3  3.52 13.60    86
  10/30/2014 23:00    20  0.00  0.00  -0.3  3.47 13.59    86
  10/30/2014 22:00    21  0.00  0.00  -0.1  3.10 13.58    83
  10/30/2014 21:00    21  0.00  0.00  -0.1  3.72 13.57    81
  10/30/2014 20:00    22  0.00  0.00  -0.3  3.41 13.55    82
  10/30/2014 19:00    23  0.00  0.00  -0.3  3.53 13.54    80
  10/30/2014 18:00    24  0.00  0.00  -0.3  3.56 13.53    76
  10/30/2014 17:00    27  0.00  0.00  -0.3  3.72 13.52    70
  10/30/2014 16:00    27  0.00  0.00  -0.3  3.44 13.53    73
  10/30/2014 15:00    27  0.00  0.00  -0.3  3.64 13.54    75
  10/30/2014 14:00    26  0.00  0.00  -0.3  3.48 13.56    76
  10/30/2014 13:00    24  0.00  0.00  -0.3  2.84 13.57    80
  10/30/2014 12:00    23  0.00  0.00  -0.3  3.92 13.57    80
  10/30/2014 11:00    22  0.00  0.00  -0.3  3.62 13.57    82
  10/30/2014 10:00    22  0.00  0.00  -0.3  4.11 13.55    82
  10/30/2014 09:00    23  0.00  0.00  -0.3  3.69 13.54    87
  10/30/2014 08:00    24  0.00  0.00  -0.3  4.05 13.53    88
  10/30/2014 07:00    25  0.00  0.00  -0.3  4.06 13.51    92
  10/30/2014 06:00    26  0.00  0.00  -0.3  4.02 13.49    90
  10/30/2014 05:00    27  0.00  0.00  -0.3  3.95 13.48    88
  10/30/2014 04:00    26  0.00  0.00  -0.3  4.24 13.47    90
  10/30/2014 03:00    28  0.00  0.00  -0.3  3.66 13.45    87
  10/30/2014 02:00    31  0.00  0.00  -0.3  3.60 13.45    80


CLICK TO VIEW GRAPH!!